.
WxDataArchive / Data Records for 2006-07-09
2006-07-08 July 2006 2006-07-10

Data Records for Sunday, 09 July 2006

Time	Temp	Chill	HIndex	Humid	Dewpt	 Wind 	HiWind	WindDir	Rain 	Barom 
-----	----	-----	------	-----	-----	------	------	-------	-----	----- 
00:00	65.6	65.6	65.6	73	56.7	0	0	---	0.00	30.012 
00:05	65.5	65.5	65.5	74	57.0	0	0	---	0.00	30.012 
00:10	65.3	65.3	65.3	74	56.8	0	0	---	0.00	30.012 
00:15	65.2	65.2	65.2	74	56.7	0	0	---	0.00	30.004 
00:20	65.2	65.2	65.2	75	57.1	0	0	---	0.00	30.004 
00:25	65.0	65.0	65.0	75	56.9	0	0	---	0.00	30.004 
00:30	64.8	64.8	64.8	75	56.7	0	0	---	0.00	30.002 
00:35	64.8	64.8	64.8	76	57.0	0	0	---	0.00	30.002 
00:40	64.8	64.8	64.8	76	57.0	0	0	---	0.00	30.002 
00:45	64.7	64.7	64.7	76	57.0	0	0	---	0.00	29.995 
00:50	64.7	64.7	64.7	77	57.3	0	0	---	0.00	29.995 
00:55	64.7	64.7	64.7	77	57.3	0	0	---	0.00	29.995 
01:00	64.7	64.7	64.7	77	57.3	0	0	---	0.00	29.993 
01:05	64.5	64.5	64.5	77	57.1	0	0	---	0.00	29.993 
01:10	64.5	64.5	64.5	79	57.8	0	0	---	0.00	29.993 
01:15	64.3	64.3	64.3	79	57.6	0	0	---	0.00	29.995 
01:20	64.3	64.3	64.3	80	58.0	0	0	---	0.00	29.995 
01:25	64.2	64.2	64.2	80	57.9	0	0	---	0.00	29.995 
01:30	63.9	63.9	63.9	81	57.9	0	0	---	0.00	29.994 
01:35	63.7	63.7	63.7	81	57.8	0	0	---	0.00	29.994 
01:40	63.5	63.5	63.5	81	57.6	0	0	---	0.00	29.994 
01:45	63.4	63.4	63.4	81	57.5	0	0	---	0.00	29.991 
01:50	63.2	63.2	63.2	81	57.3	0	0	---	0.00	29.991 
01:55	62.9	62.9	62.9	82	57.3	0	0	---	0.00	29.991 
02:00	62.7	62.7	62.7	83	57.5	0	0	---	0.00	29.990 
02:05	62.6	62.6	62.6	83	57.4	0	0	---	0.00	29.990 
02:10	62.4	62.4	62.4	83	57.2	0	0	---	0.00	29.990 
02:15	62.3	62.3	62.3	84	57.4	0	0	---	0.00	29.988 
02:20	62.1	62.1	62.1	84	57.2	0	0	---	0.00	29.988 
02:25	62.1	62.1	62.1	84	57.2	0	0	---	0.00	29.988 
02:30	62.0	62.0	62.0	85	57.4	0	0	---	0.00	29.979 
02:35	62.0	62.0	62.0	85	57.4	0	0	---	0.00	29.979 
02:40	62.0	62.0	62.0	85	57.4	0	0	---	0.00	29.979 
02:45	62.0	62.0	62.0	85	57.4	0	0	---	0.00	29.975 
02:50	61.8	61.8	61.8	86	57.6	0	0	---	0.00	29.975 
02:55	61.8	61.8	61.8	86	57.6	0	0	---	0.00	29.975 
03:00	61.8	61.8	61.8	86	57.6	0	0	---	0.00	29.974 
03:05	61.8	61.8	61.8	86	57.6	0	0	---	0.00	29.974 
03:10	62.0	62.0	62.0	86	57.8	0	0	---	0.00	29.974 
03:15	62.1	62.1	62.1	86	57.9	0	0	---	0.00	29.971 
03:20	62.3	62.3	62.3	85	57.7	0	0	---	0.00	29.971 
03:25	62.3	62.3	62.3	85	57.7	0	0	---	0.00	29.971 
03:30	62.3	62.3	62.3	85	57.7	0	0	---	0.00	29.968 
03:35	62.3	62.3	62.3	85	57.7	0	0	---	0.00	29.968 
03:40	62.3	62.3	62.3	85	57.7	0	0	---	0.00	29.968 
03:45	62.1	62.1	62.1	85	57.5	0	0	---	0.00	29.967 
03:50	62.0	62.0	62.0	85	57.4	0	0	---	0.00	29.967 
03:55	62.0	62.0	62.0	85	57.4	0	0	---	0.00	29.967 
04:00	61.8	61.8	61.8	86	57.6	0	0	---	0.00	29.964 
04:05	61.8	61.8	61.8	86	57.6	0	0	---	0.00	29.964 
04:10	61.8	61.8	61.8	86	57.6	0	0	---	0.00	29.964 
04:15	61.8	61.8	61.8	87	57.9	0	0	---	0.00	29.963 
04:20	61.8	61.8	61.8	87	57.9	0	0	---	0.00	29.963 
04:25	62.0	62.0	62.0	87	58.1	0	0	---	0.00	29.963 
04:30	62.0	62.0	62.0	87	58.1	0	0	---	0.00	29.960 
04:35	62.0	62.0	62.0	87	58.1	0	0	---	0.00	29.960 
04:40	62.1	62.1	62.1	86	57.9	0	0	---	0.00	29.960 
04:45	62.1	62.1	62.1	86	57.9	0	0	---	0.00	29.959 
04:50	62.4	62.4	62.4	85	57.8	0	0	---	0.00	29.959 
04:55	62.9	62.9	62.9	84	58.0	0	0	---	0.00	29.959 
05:00	63.1	63.1	63.1	84	58.2	0	0	---	0.00	29.961 
05:05	63.4	63.4	63.4	83	58.1	0	0	---	0.00	29.961 
05:10	63.5	63.5	63.5	82	57.9	0	0	---	0.00	29.961 
05:15	63.7	63.7	63.7	82	58.1	0	0	---	0.00	29.962 
05:20	64.0	64.0	64.0	82	58.4	0	0	---	0.00	29.962 
05:25	64.3	64.3	64.3	82	58.7	0	0	---	0.00	29.962 
05:30	64.5	64.5	64.5	82	58.9	0	0	---	0.00	29.961 
05:35	64.7	64.7	64.7	82	59.1	0	0	---	0.00	29.961 
05:40	64.7	64.7	64.7	82	59.1	0	0	---	0.00	29.961 
05:45	64.7	64.7	64.7	82	59.1	0	0	---	0.00	29.960 
05:50	64.7	64.7	64.7	82	59.1	0	0	---	0.00	29.960 
05:55	64.7	64.7	64.7	82	59.1	0	0	---	0.00	29.960 
06:00	64.7	64.7	64.7	83	59.4	0	0	---	0.00	29.960 
06:05	64.7	64.7	64.7	84	59.7	0	0	---	0.00	29.960 
06:10	64.7	64.7	64.7	84	59.7	0	0	---	0.00	29.960 
06:15	64.7	64.7	64.7	84	59.7	0	0	---	0.00	29.966 
06:20	64.7	64.7	64.7	84	59.7	0	1	270	0.00	29.966 
06:25	64.7	64.7	64.7	83	59.4	0	0	---	0.00	29.966 
06:30	64.7	64.7	64.7	83	59.4	0	0	---	0.00	29.961 
06:35	64.7	64.7	64.7	83	59.4	0	0	---	0.00	29.961 
06:40	64.8	64.8	64.8	82	59.2	0	1	270	0.00	29.961 
06:45	65.0	65.0	65.0	81	59.0	0	0	---	0.00	29.964 
06:50	65.5	65.5	65.5	79	58.8	1	2	270	0.00	29.964 
06:55	66.0	66.0	66.0	78	58.9	1	2	270	0.00	29.964 
07:00	66.3	66.3	66.3	77	58.9	0	1	270	0.00	29.969 
07:05	66.4	66.4	66.4	77	59.0	0	2	270	0.00	29.969 
07:10	66.4	66.4	66.4	77	59.0	0	2	270	0.00	29.969 
07:15	66.6	66.6	66.6	77	59.2	0	2	270	0.00	29.971 
07:20	66.6	66.6	66.6	77	59.2	0	2	270	0.00	29.971 
07:25	66.8	66.8	66.8	77	59.3	0	1	270	0.00	29.971 
07:30	66.9	66.9	66.9	77	59.4	0	2	270	0.00	29.972 
07:35	67.1	67.1	67.1	77	59.6	0	1	270	0.00	29.972 
07:40	67.3	67.3	67.3	77	59.8	0	2	270	0.00	29.972 
07:45	67.4	67.4	67.4	76	59.6	1	2	270	0.00	29.969 
07:50	67.6	67.6	67.6	76	59.8	1	2	270	0.00	29.969 
07:55	67.9	67.9	67.9	77	60.4	0	2	270	0.00	29.969 
08:00	68.3	68.3	68.3	75	60.1	1	3	270	0.00	29.972 
08:05	68.4	68.4	68.4	74	59.8	0	2	248	0.00	29.972 
08:10	68.8	68.8	68.8	75	60.5	1	2	248	0.00	29.972 
08:15	68.9	68.9	68.9	74	60.3	0	2	248	0.00	29.974 
08:20	69.1	69.1	69.1	73	60.1	0	2	248	0.00	29.974 
08:25	69.3	69.3	69.3	73	60.3	0	2	248	0.00	29.974 
08:30	69.4	69.4	69.4	73	60.4	0	2	248	0.00	29.975 
08:35	69.6	69.6	69.6	71	59.8	0	3	248	0.00	29.975 
08:40	69.8	69.8	69.8	70	59.6	1	3	248	0.00	29.975 
08:45	69.9	69.9	69.9	71	60.1	0	2	270	0.00	29.976 
08:50	69.9	69.9	69.9	70	59.7	0	2	270	0.00	29.976 
08:55	69.9	69.9	69.9	70	59.7	0	2	270	0.00	29.976 
09:00	69.9	69.9	69.9	70	59.7	0	2	270	0.00	29.974 
09:05	69.8	69.8	69.8	72	60.4	0	2	270	0.00	29.974 
09:10	69.8	69.8	69.8	71	60.0	0	1	270	0.00	29.974 
09:15	69.8	69.8	69.8	70	59.6	0	2	270	0.00	29.976 
09:20	69.8	69.8	69.8	71	60.0	0	1	270	0.00	29.976 
09:25	69.9	69.9	69.9	71	60.1	0	2	270	0.00	29.976 
09:30	70.1	70.1	70.1	70	59.8	1	2	270	0.00	29.973 
09:35	70.3	70.3	70.3	70	60.0	0	2	270	0.00	29.973 
09:40	70.6	70.6	70.6	69	59.9	1	3	270	0.00	29.973 
09:45	70.9	70.9	70.9	69	60.2	0	2	270	0.00	29.968 
09:50	71.3	71.3	71.3	69	60.6	0	2	270	0.00	29.968 
09:55	71.8	71.8	71.8	69	61.1	0	2	270	0.00	29.968 
10:00	72.3	72.3	72.3	67	60.7	0	2	270	0.00	29.967 
10:05	72.5	72.5	72.5	67	60.9	1	3	248	0.00	29.967 
10:10	72.7	72.7	72.7	66	60.7	1	2	248	0.00	29.967 
10:15	73.0	73.0	73.0	66	61.0	1	3	248	0.00	29.966 
10:20	73.2	73.2	73.2	65	60.7	1	3	248	0.00	29.966 
10:25	73.5	73.5	73.5	64	60.6	1	3	248	0.00	29.966 
10:30	73.9	73.9	73.9	63	60.5	1	3	248	0.00	29.961 
10:35	74.0	74.0	74.0	63	60.6	1	4	270	0.00	29.961 
10:40	74.0	74.0	74.0	62	60.1	2	4	248	0.00	29.961 
10:45	74.0	74.0	74.0	62	60.1	2	3	248	0.00	29.960 
10:50	74.6	74.6	74.6	64	61.6	1	3	248	0.00	29.960 
10:55	75.3	75.3	77.5	62	61.4	1	3	248	0.00	29.960 
11:00	75.8	75.8	77.8	62	61.8	1	3	248	0.00	29.957 
11:05	76.3	76.3	78.2	59	60.9	2	4	248	0.00	29.957 
11:10	76.5	76.5	78.4	58	60.6	2	3	270	0.00	29.957 
11:15	76.7	76.7	78.5	58	60.8	2	4	248	0.00	29.960 
11:20	76.3	76.3	78.3	57	59.9	2	5	292	0.00	29.960 
11:25	76.3	76.3	78.3	57	59.9	2	5	270	0.00	29.960 
11:30	76.1	76.1	78.1	57	59.7	2	4	270	0.00	29.960 
11:35	76.0	76.0	78.0	58	60.1	1	3	270	0.00	29.960 
11:40	75.8	75.8	77.9	58	59.9	2	4	248	0.00	29.960 
11:45	75.6	75.6	77.8	59	60.2	1	3	248	0.00	29.960 
11:50	75.4	75.4	77.6	59	60.1	1	4	248	0.00	29.960 
11:55	75.3	75.3	77.6	58	59.5	2	3	270	0.00	29.960 
12:00	75.1	75.1	77.5	59	59.8	2	4	248	0.00	29.962 
12:05	75.1	75.1	77.4	61	60.7	1	3	248	0.00	29.962 
12:10	75.1	75.1	77.4	60	60.2	2	5	248	0.00	29.962 
12:15	75.3	75.3	77.5	62	61.4	1	4	248	0.00	29.959 
12:20	75.6	75.6	77.7	61	61.2	1	3	248	0.00	29.959 
12:25	75.8	75.8	77.8	62	61.8	1	3	248	0.00	29.959 
12:30	76.1	76.1	78.1	61	61.7	1	3	248	0.00	29.952 
12:35	76.8	76.8	78.6	59	61.4	2	4	248	0.00	29.952 
12:40	77.0	77.0	78.8	60	62.0	2	4	270	0.00	29.952 
12:45	77.0	77.0	78.8	59	61.6	2	3	248	0.00	29.945 
12:50	76.8	76.8	78.6	59	61.4	1	3	270	0.00	29.945 
12:55	77.0	77.0	78.8	58	61.1	2	5	270	0.00	29.945 
13:00	77.7	77.7	79.3	57	61.2	2	4	248	0.00	29.943 
13:05	78.8	78.8	80.3	58	62.8	1	5	248	0.00	29.943 
13:10	79.6	79.6	80.8	54	61.5	2	4	248	0.00	29.943 
13:15	80.3	80.3	81.3	52	61.0	2	7	248	0.00	29.942 
13:20	81.1	81.1	82.0	51	61.2	2	6	270	0.00	29.942 
13:25	81.4	81.4	82.4	52	62.1	2	4	270	0.00	29.942 
13:30	81.2	81.2	81.7	48	59.6	3	6	270	0.00	29.930 
13:35	81.4	81.4	82.0	49	60.4	3	5	248	0.00	29.930 
13:40	81.6	81.6	82.3	50	61.1	2	7	270	0.00	29.930 
13:45	81.8	81.8	82.4	49	60.7	2	6	90	0.00	29.925 
13:50	82.2	82.2	82.8	49	61.1	2	4	270	0.00	29.925 
13:55	82.4	82.4	82.6	46	59.5	3	6	270	0.00	29.925 
14:00	82.2	82.2	82.1	44	58.1	3	6	270	0.00	29.925 
14:05	82.8	82.8	82.9	45	59.3	2	5	248	0.00	29.925 
14:10	83.2	83.2	83.6	47	60.8	2	7	248	0.00	29.925 
14:15	83.4	83.4	83.7	46	60.4	2	6	248	0.00	29.925 
14:20	83.2	83.2	83.4	46	60.2	2	4	270	0.00	29.925 
14:25	83.4	83.4	83.7	46	60.4	2	6	248	0.00	29.925 
14:30	84.0	84.0	84.5	47	61.6	1	3	112	0.00	29.913 
14:35	84.1	84.1	83.7	42	58.5	3	9	248	0.00	29.913 
14:40	84.0	84.0	84.1	45	60.3	2	4	270	0.00	29.913 
14:45	84.1	84.1	83.2	39	56.4	3	6	248	0.00	29.914 
14:50	84.3	84.3	83.6	40	57.3	3	6	270	0.00	29.914 
14:55	84.7	84.7	84.0	40	57.7	2	5	248	0.00	29.914 
15:00	84.5	84.5	83.6	39	56.8	3	6	248	0.00	29.910 
15:05	84.5	84.5	84.1	42	58.9	2	6	270	0.00	29.910 
15:10	84.9	84.9	84.4	41	58.5	2	6	270	0.00	29.910 
15:15	84.3	84.3	84.3	44	60.0	2	7	270	0.00	29.908 
15:20	84.0	84.0	84.0	44	59.7	2	5	248	0.00	29.908 
15:25	83.6	83.6	83.7	45	60.0	1	3	270	0.00	29.908 
15:30	83.2	83.2	83.4	46	60.2	2	5	248	0.00	29.906 
15:35	82.6	82.6	83.0	47	60.3	2	6	248	0.00	29.906 
15:40	82.4	82.4	83.2	50	61.9	1	4	248	0.00	29.906 
15:45	83.4	83.4	83.8	47	61.0	2	6	248	0.00	29.897 
15:50	83.4	83.4	83.7	46	60.4	2	4	248	0.00	29.897 
15:55	82.8	82.8	83.0	46	59.9	2	5	248	0.00	29.897 
16:00	82.8	82.8	82.9	45	59.3	2	4	270	0.00	29.894 
16:05	83.4	83.4	83.2	43	58.5	3	6	248	0.00	29.894 
16:10	84.0	84.0	83.8	43	59.1	2	5	270	0.00	29.894 
16:15	84.3	84.3	83.9	42	58.7	1	5	248	0.00	29.892 
16:20	84.5	84.5	84.3	43	59.5	1	4	270	0.00	29.892 
16:25	84.5	84.5	84.0	41	58.2	3	6	270	0.00	29.892 
16:30	84.3	84.3	83.9	42	58.7	2	4	270	0.00	29.885 
16:35	84.3	84.3	83.6	40	57.3	3	9	248	0.00	29.885 
16:40	84.7	84.7	84.0	40	57.7	2	6	248	0.00	29.885 
16:45	84.9	84.9	84.6	42	59.2	2	5	248	0.00	29.878 
16:50	85.1	85.1	84.4	40	58.0	2	5	248	0.00	29.878 
16:55	84.9	84.9	84.2	40	57.8	2	5	270	0.00	29.878 
17:00	84.3	84.3	83.8	41	58.0	1	3	270	0.00	29.875 
17:05	84.1	84.1	83.6	41	57.8	2	4	248	0.00	29.875 
17:10	83.8	83.8	83.2	41	57.6	2	4	248	0.00	29.875 
17:15	84.0	84.0	83.6	42	58.4	3	6	270	0.00	29.871 
17:20	84.0	84.0	83.4	41	57.7	3	5	248	0.00	29.871 
17:25	84.5	84.5	84.0	41	58.2	2	4	248	0.00	29.871 
17:30	84.7	84.7	84.0	40	57.7	2	4	292	0.00	29.866 
17:35	84.7	84.7	83.8	39	57.0	2	5	270	0.00	29.866 
17:40	84.0	84.0	83.4	41	57.7	1	3	248	0.00	29.866 
17:45	84.1	84.1	83.6	41	57.8	2	6	248	0.00	29.863 
17:50	84.0	84.0	83.4	41	57.7	2	4	248	0.00	29.863 
17:55	83.6	83.6	83.0	41	57.4	2	6	270	0.00	29.863 
18:00	83.6	83.6	83.0	41	57.4	3	5	270	0.00	29.862 
18:05	82.8	82.8	82.6	43	58.0	3	5	248	0.00	29.862 
18:10	82.2	82.2	82.3	45	58.7	2	6	248	0.00	29.862 
18:15	82.2	82.2	82.3	45	58.7	2	4	248	0.00	29.860 
18:20	82.8	82.8	82.9	45	59.3	2	6	248	0.00	29.860 
18:25	82.8	82.8	82.6	43	58.0	2	6	270	0.00	29.860 
18:30	82.6	82.6	82.7	45	59.1	2	5	248	0.00	29.856 
18:35	82.6	82.6	82.7	45	59.1	2	5	270	0.00	29.856 
18:40	82.6	82.6	82.7	45	59.1	2	5	270	0.00	29.856 
18:45	82.6	82.6	83.0	47	60.3	1	3	270	0.00	29.854 
18:50	82.4	82.4	82.6	46	59.5	2	5	248	0.00	29.854 
18:55	82.4	82.4	82.6	46	59.5	2	4	248	0.00	29.854 
19:00	82.4	82.4	82.3	44	58.3	2	5	248	0.00	29.851 
19:05	82.6	82.6	82.4	43	57.8	2	4	270	0.00	29.851 
19:10	82.4	82.4	81.8	40	55.6	3	4	248	0.00	29.851 
19:15	82.0	82.0	81.5	40	55.3	2	3	248	0.00	29.853 
19:20	82.0	82.0	81.7	42	56.6	2	4	248	0.00	29.853 
19:25	82.2	82.2	82.0	43	57.4	2	4	270	0.00	29.853 
19:30	82.0	82.0	81.8	43	57.3	1	3	248	0.00	29.854 
19:35	82.0	82.0	81.9	44	57.9	2	5	248	0.00	29.854 
19:40	81.8	81.8	81.9	45	58.4	2	3	270	0.00	29.854 
19:45	81.6	81.6	81.8	46	58.8	1	3	270	0.00	29.859 
19:50	81.4	81.4	81.6	46	58.6	1	2	248	0.00	29.859 
19:55	81.2	81.2	81.2	44	57.2	2	4	248	0.00	29.859 
20:00	81.2	81.2	81.3	45	57.8	2	5	248	0.00	29.861 
20:05	81.1	81.1	81.3	45	57.7	1	4	248	0.00	29.861 
20:10	81.1	81.1	81.3	45	57.7	1	4	248	0.00	29.861 
20:15	80.9	80.9	81.2	46	58.2	1	4	248	0.00	29.862 
20:20	80.7	80.7	81.2	48	59.2	1	2	248	0.00	29.862 
20:25	80.5	80.5	80.9	47	58.4	2	3	248	0.00	29.862 
20:30	80.3	80.3	80.9	48	58.8	1	3	270	0.00	29.861 
20:35	79.9	79.9	80.5	48	58.4	2	4	248	0.00	29.861 
20:40	79.6	79.6	80.4	49	58.7	1	3	248	0.00	29.861 
20:45	79.4	79.4	80.2	49	58.5	1	4	248	0.00	29.862 
20:50	79.2	79.2	80.1	49	58.4	1	5	248	0.00	29.862 
20:55	79.0	79.0	80.0	50	58.7	1	3	248	0.00	29.862 
21:00	78.6	78.6	79.7	50	58.4	1	2	248	0.00	29.862 
21:05	78.5	78.5	79.6	51	58.8	1	3	248	0.00	29.862 
21:10	78.1	78.1	79.4	52	59.0	0	3	248	0.00	29.862 
21:15	77.9	77.9	79.3	53	59.4	1	2	248	0.00	29.859 
21:20	77.6	77.6	79.1	53	59.1	0	1	248	0.00	29.859 
21:25	77.2	77.2	78.8	54	59.2	0	1	248	0.00	29.859 
21:30	77.0	77.0	78.7	55	59.6	0	2	248	0.00	29.852 
21:35	76.7	76.7	78.5	56	59.8	0	1	248	0.00	29.852 
21:40	76.3	76.3	78.3	57	59.9	1	2	248	0.00	29.852 
21:45	76.1	76.1	78.1	58	60.2	0	2	248	0.00	29.845 
21:50	76.1	76.1	78.1	58	60.2	0	1	248	0.00	29.845 
21:55	76.0	76.0	78.0	58	60.1	0	2	248	0.00	29.845 
22:00	75.8	75.8	77.9	59	60.4	0	1	248	0.00	29.848 
22:05	75.6	75.6	77.7	60	60.7	0	1	248	0.00	29.848 
22:10	75.3	75.3	77.5	60	60.4	0	1	248	0.00	29.848 
22:15	75.1	75.1	77.4	61	60.7	0	2	248	0.00	29.854 
22:20	74.9	74.9	74.9	62	61.0	0	1	248	0.00	29.854 
22:25	74.7	74.7	74.7	62	60.8	0	1	248	0.00	29.854 
22:30	74.6	74.6	74.6	63	61.2	0	1	248	0.00	29.857 
22:35	74.2	74.2	74.2	63	60.8	0	1	248	0.00	29.857 
22:40	74.0	74.0	74.0	64	61.0	0	1	248	0.00	29.857 
22:45	73.9	73.9	73.9	65	61.4	0	2	248	0.00	29.859 
22:50	73.7	73.7	73.7	65	61.2	0	1	248	0.00	29.859 
22:55	73.7	73.7	73.7	65	61.2	0	3	248	0.00	29.859 
23:00	73.7	73.7	73.7	65	61.2	1	3	248	0.00	29.864 
23:05	73.9	73.9	73.9	65	61.4	1	2	248	0.00	29.864 
23:10	74.2	74.2	74.2	65	61.7	1	2	248	0.00	29.864 
23:15	74.2	74.2	74.2	65	61.7	0	2	248	0.00	29.872 
23:20	74.4	74.4	74.4	65	61.8	1	2	248	0.00	29.872 
23:25	74.4	74.4	74.4	65	61.8	1	3	248	0.00	29.872 
23:30	74.4	74.4	74.4	65	61.8	1	2	248	0.00	29.875 
23:35	74.4	74.4	74.4	65	61.8	0	2	248	0.00	29.875 
23:40	74.4	74.4	74.4	65	61.8	1	3	248	0.00	29.875 
23:45	74.6	74.6	74.6	65	62.0	2	4	248	0.00	29.873 
23:50	74.6	74.6	74.6	65	62.0	1	2	248	0.00	29.873 
23:55	74.4	74.4	74.4	65	61.8	1	3	248	0.00	29.873 

CoCoRaHS
IN-AL-39
A2 Web Hosting
Creative Commons License
GoDaddy
Look for:

loaded 2017-12-13 10:09:31 • last modified 2010-11-18 10:43:29
Privacy PolicyDisclaimer
• wx.awcolley.com is powered by PmWiki v.2002016 •
• all content (unless otherwise noted) © 2017 A W Colley